Flight Track Log - Related Links

Times and Time Zones

All times are in EDT time to prevent confusion due to time zone crossing. See the SWA3034 flight status page for this flight to view local times or setup timezone preferences in your user account.


Time Position Orientation Groundspeed Altitude Reporting Facility
EDT Latitude Longitude Course Direction KTS MPH feet Rate Location/Type
Sat 04:10:00 PM 36.0758 -115.1072 88° East 171 197 3,700  Level Los Angeles Center
Sat 04:10:20 PM 36.0764 -115.0903 88° East 179 206 4,100 1,800 Climbing Los Angeles Center
Sat 04:11:00 PM 36.0761 -115.0297 90° East 237 273 5,500 1,645 Climbing Los Angeles Center
Sat 04:11:22 PM 36.0761 -115.0108 90° East 216 249 5,800 1,574 Climbing Los Angeles Center
Sat 04:12:01 PM 36.0742 -114.9319 92° East 282 325 7,100 1,742 Climbing Los Angeles Center
Sat 04:12:24 PM 36.0708 -114.9133 102° East 267 307 7,600 2,541 Climbing Los Angeles Center
Sat 04:13:26 PM 36.0522 -114.7953 101° East 292 336 10,700 2,661 Climbing Los Angeles Center
Sat 04:14:28 PM 36.0364 -114.6828 100° East 332 382 13,100 2,323 Climbing Los Angeles Center
Sat 04:15:30 PM 36.0181 -114.5661 101° East 345 397 15,500 2,274 Climbing Los Angeles Center
Sat 04:16:32 PM 36.0017 -114.4431 99° East 361 415 17,800 2,177 Climbing Los Angeles Center
Sat 04:17:34 PM 35.9839 -114.3186 100° East 369 425 20,000 1,839 Climbing Los Angeles Center
Sat 04:18:36 PM 35.9647 -114.1900 100° East 381 438 21,600 1,839 Climbing Los Angeles Center
Sat 04:19:38 PM 35.9408 -114.0275 100° East 400 460 23,800 1,839 Climbing Los Angeles Center
Sat 04:20:40 PM 35.9206 -113.8908 100° East 406 467 25,400 1,452 Climbing Los Angeles Center
Sat 04:21:42 PM 35.8925 -113.7536 104° East 412 474 26,800 1,113 Climbing Los Angeles Center
Sat 04:22:44 PM 35.8636 -113.6117 104° East 426 490 27,700 968 Climbing Los Angeles Center
Sat 04:23:46 PM 35.8306 -113.4514 104° East 444 511 28,800 1,065 Climbing Los Angeles Center
Sat 04:24:48 PM 35.7983 -113.2967 104° East 463 533 29,900 1,306 Climbing Los Angeles Center
Sat 04:25:50 PM 35.7656 -113.1397 104° East 471 542 31,500 1,306 Climbing Los Angeles Center
Sat 04:26:52 PM 35.7333 -112.9847 104° East 468 539 32,600 726 Climbing Los Angeles Center
Sat 04:27:54 PM 35.6997 -112.8253 105° East 475 547 33,000 194 Climbing Los Angeles Center
Sat 04:28:56 PM 35.6644 -112.6617 105° East 483 556 33,000 726 Level Los Angeles Center
Sat 04:29:58 PM 35.6303 -112.5025 105° East 486 559 34,500 1,258 Climbing Los Angeles Center
Sat 04:31:00 PM 35.5850 -112.3147 106° East 482 555 35,600 968 Climbing Los Angeles Center
Sat 04:32:02 PM 35.5281 -112.1681 115° Southeast 477 549 36,500 677 Climbing Los Angeles Center
Sat 04:33:04 PM 35.4533 -112.0353 125° Southeast 473 544 37,000 242 Climbing Los Angeles Center
Sat 04:34:06 PM 35.3794 -111.9017 124° Southeast 475 547 37,000  Level Los Angeles Center
Sat 04:35:08 PM 35.3064 -111.7675 124° Southeast 475 547 37,000  Level Los Angeles Center
Sat 04:36:10 PM 35.2303 -111.6336 125° Southeast 475 547 37,000  Level Albuquerque Center
Sat 04:37:12 PM 35.1425 -111.4731 124° Southeast 473 544 37,000  Level Albuquerque Center
Sat 04:38:13 PM 35.0683 -111.3386 124° Southeast 475 547 37,000  Level Albuquerque Center
Sat 04:39:15 PM 34.9931 -111.2050 124° Southeast 477 549 37,000  Level Albuquerque Center
Sat 04:40:16 PM 34.9181 -111.0708 124° Southeast 478 550 37,000  Level Albuquerque Center
Sat 04:41:18 PM 34.8425 -110.9361 124° Southeast 480 552 37,000  Level Albuquerque Center
Sat 04:42:20 PM 34.7681 -110.8050 125° Southeast 475 547 37,000  Level Albuquerque Center
Sat 04:43:21 PM 34.6800 -110.6475 124° Southeast 476 548 37,000  Level Albuquerque Center
Sat 04:44:23 PM 34.6097 -110.5219 124° Southeast 473 544 37,000  Level Albuquerque Center
Sat 04:45:24 PM 34.5375 -110.3964 125° Southeast 474 545 37,000  Level Albuquerque Center
Sat 04:46:26 PM 34.4506 -110.2456 125° Southeast 482 555 37,000  Level Albuquerque Center
Sat 04:47:27 PM 34.3781 -110.1192 125° Southeast 479 551 37,000  Level Albuquerque Center
Sat 04:48:29 PM 34.2947 -109.9739 125° Southeast 474 545 37,000  Level Albuquerque Center
Sat 04:49:31 PM 34.2228 -109.8481 125° Southeast 475 547 37,000  Level Albuquerque Center
Sat 04:50:32 PM 34.1383 -109.7039 125° Southeast 473 544 37,000  Level Albuquerque Center
Sat 04:51:34 PM 34.0650 -109.5783 125° Southeast 475 547 37,000  Level Albuquerque Center
Sat 04:52:35 PM 33.9883 -109.4467 125° Southeast 478 550 37,000  Level Albuquerque Center
Sat 04:53:37 PM 33.9108 -109.3167 126° Southeast 478 550 37,000  Level Albuquerque Center
Sat 04:54:38 PM 33.8356 -109.1869 125° Southeast 477 549 37,000  Level Albuquerque Center
Sat 04:55:40 PM 33.7583 -109.0586 126° Southeast 476 548 37,000  Level Albuquerque Center
Sat 04:56:41 PM 33.6828 -108.9311 125° Southeast 473 544 37,000  Level Albuquerque Center
Sat 04:57:43 PM 33.5911 -108.7794 126° Southeast 471 542 37,000  Level Albuquerque Center
Sat 04:58:44 PM 33.5144 -108.6511 126° Southeast 472 543 37,000  Level Albuquerque Center
Sat 04:59:46 PM 33.4386 -108.5244 126° Southeast 470 541 37,000 -146 Level Albuquerque Center
Sat 05:00:47 PM 33.3625 -108.3967 125° Southeast 470 541 36,700 -634 Descending Albuquerque Center
Sat 05:01:49 PM 33.2847 -108.2706 126° Southeast 472 543 35,700 -919 Descending Albuquerque Center
Sat 05:02:51 PM 33.2072 -108.1472 127° Southeast 467 537 34,800 -927 Descending Albuquerque Center
Sat 05:03:52 PM 33.1214 -108.0397 134° Southeast 464 534 33,800 -878 Descending Albuquerque Center
Sat 05:04:54 PM 33.0153 -107.9072 134° Southeast 463 533 33,000 -390 Descending Albuquerque Center
Sat 05:05:55 PM 32.9267 -107.7958 133° Southeast 461 531 33,000  Level Albuquerque Center
Sat 05:06:56 PM 32.8397 -107.6850 133° Southeast 461 531 33,000  Level Albuquerque Center
Sat 05:07:58 PM 32.7489 -107.5736 134° Southeast 465 535 33,000  Level Albuquerque Center
Sat 05:08:59 PM 32.6569 -107.4589 134° Southeast 471 542 33,000 -1,366 Level Albuquerque Center
Sat 05:10:01 PM 32.5717 -107.3486 133° Southeast 465 535 30,200 -3,024 Descending Albuquerque Center
Sat 05:11:02 PM 32.4958 -107.2283 127° Southeast 462 532 26,800 -3,463 Descending Albuquerque Center
Sat 05:12:04 PM 32.4086 -107.0897 127° Southeast 459 528 23,100 -3,494 Descending Albuquerque Center
Sat 05:12:21 PM 32.3853 -107.0539 128° Southeast 458 527 22,200 -3,039 Descending Albuquerque Center
Sat 05:13:21 PM 32.3117 -106.9386 127° Southeast 437 503 19,200 -2,774 Descending Albuquerque Center
Sat 05:14:07 PM 32.2578 -106.8761 136° Southeast 426 490 17,300 -2,754 Descending Albuquerque Center
Sat 05:14:22 PM 32.2236 -106.8497 147° Southeast 413 475 16,400 -2,656 Descending Albuquerque Center
Sat 05:15:08 PM 32.1636 -106.8017 146° Southeast 407 468 14,600 -2,852 Descending Albuquerque Center
Sat 05:15:23 PM 32.1244 -106.7714 147° Southeast 395 455 13,500 -2,516 Descending Albuquerque Center
Sat 05:16:10 PM 32.0744 -106.7300 145° Southeast 390 449 12,000 -1,889 Descending Albuquerque Center
Sat 05:17:11 PM 32.0350 -106.6022 110° East 342 394 10,100 -1,463 Descending Albuquerque Center
Sat 05:18:13 PM 32.0122 -106.5128 107° East 293 337 9,000 -927 Descending Albuquerque Center
Sat 05:19:14 PM 31.9903 -106.4261 107° East 277 319 8,200 -1,073 Descending Albuquerque Center
Sat 05:20:16 PM 31.9678 -106.3383 107° East 280 322 6,800 -878 Descending Albuquerque Center
Sat 05:21:17 PM 31.9128 -106.2922 145° Southeast 244 281 6,400 -634 Descending Albuquerque Center
Sat 05:22:19 PM 31.8550 -106.3228 204° Southwest 206 237 5,500 -1,122 Descending Albuquerque Center
Sat 05:23:20 PM 31.8242 -106.3664 230° Southwest 166 191 4,100 -1,377 Descending Albuquerque Center
Sat 05:25:00 PM 31.8000 -106.3667 North  Level FlightAware Approximate

Login

Don't have an account? Register now (free) for customized features, flight alerts, and more!